createdAt,value
2018-05-08T00:01:45.011Z,2.00
2018-05-08T00:04:18.130Z,2.20
2018-05-08T00:06:49.547Z,2.13
2018-05-08T00:09:21.472Z,1.97
2018-05-08T00:11:53.488Z,2.17
2018-05-08T00:14:26.446Z,2.70
2018-05-08T00:16:57.966Z,2.50
2018-05-08T00:19:29.579Z,2.40
2018-05-08T00:22:01.486Z,2.10
2018-05-08T00:29:16.934Z,2.23
2018-05-08T00:31:48.807Z,2.00
2018-05-08T00:34:20.595Z,2.10
2018-05-08T00:36:52.118Z,2.30
2018-05-08T00:39:23.577Z,2.00
2018-05-08T00:41:55.784Z,2.12
2018-05-08T00:44:27.489Z,2.40
2018-05-08T00:47:00.342Z,2.33
2018-05-08T00:49:31.974Z,2.10
2018-05-08T00:52:03.489Z,2.10
2018-05-08T00:54:46.376Z,2.00
2018-05-08T00:57:19.383Z,2.10
2018-05-08T00:59:51.015Z,2.00
2018-05-08T01:02:23.478Z,2.05
2018-05-08T01:04:55.021Z,2.10
2018-05-08T01:07:27.630Z,2.70
2018-05-08T01:09:59.269Z,2.70
2018-05-08T01:12:32.169Z,2.00
2018-05-08T01:15:04.027Z,2.10
2018-05-08T01:17:35.900Z,2.40
2018-05-08T01:20:07.489Z,2.50
2018-05-08T01:22:39.115Z,2.10
2018-05-08T01:25:12.408Z,2.37
2018-05-08T01:27:44.233Z,2.23
2018-05-08T01:30:17.427Z,2.00
2018-05-08T01:32:49.399Z,2.10
2018-05-08T01:35:21.452Z,2.30
2018-05-08T01:37:54.804Z,2.07
2018-05-08T01:40:27.447Z,1.90
2018-05-08T01:45:09.470Z,2.20
2018-05-08T01:47:41.225Z,2.23
2018-05-08T01:50:12.892Z,2.37
2018-05-08T01:52:44.411Z,2.00
2018-05-08T01:55:16.107Z,2.53
2018-05-08T01:57:50.073Z,2.20
2018-05-08T02:00:21.958Z,2.23
2018-05-08T02:05:25.554Z,2.20
2018-05-08T02:10:28.549Z,2.20
2018-05-08T02:13:00.446Z,2.03
2018-05-08T02:15:32.107Z,2.37
2018-05-08T02:18:04.044Z,2.37
2018-05-08T02:20:37.447Z,2.20
2018-05-08T02:23:09.897Z,2.20
2018-05-08T02:25:41.981Z,2.17
2018-05-08T02:28:15.722Z,2.60
2018-05-08T02:30:47.520Z,2.30
2018-05-08T02:33:20.465Z,2.53
2018-05-08T02:35:52.148Z,2.23
2018-05-08T02:38:23.968Z,2.37
2018-05-08T02:40:56.077Z,2.30
2018-05-08T02:43:28.092Z,2.40
2018-05-08T02:46:00.650Z,2.50
2018-05-08T02:48:33.910Z,2.40
2018-05-08T02:51:05.787Z,2.30
2018-05-08T02:53:38.340Z,2.60
2018-05-08T02:56:10.544Z,2.50
2018-05-08T02:58:44.449Z,3.90
2018-05-08T03:01:16.091Z,3.00
2018-05-08T03:03:48.071Z,2.70
2018-05-08T03:06:21.239Z,2.53
2018-05-08T03:08:53.540Z,2.80
2018-05-08T03:11:25.977Z,2.50
2018-05-08T03:13:57.804Z,3.20
2018-05-08T03:16:29.928Z,2.83
2018-05-08T03:19:02.051Z,3.20
2018-05-08T03:21:34.551Z,2.90
2018-05-08T03:24:06.966Z,2.53
2018-05-08T03:26:40.300Z,3.05
2018-05-08T03:29:12.255Z,2.70
2018-05-08T03:31:44.109Z,2.80
2018-05-08T03:34:16.070Z,2.90
2018-05-08T03:36:48.115Z,2.77
2018-05-08T03:39:21.147Z,2.57
2018-05-08T03:41:52.772Z,3.10
2018-05-08T03:44:24.887Z,2.50
2018-05-08T03:46:57.037Z,2.50
2018-05-08T03:49:28.545Z,2.67
2018-05-08T03:52:53.933Z,2.80
2018-05-08T03:55:27.444Z,2.30
2018-05-08T03:57:59.944Z,2.73
2018-05-08T04:00:43.569Z,2.80
2018-05-08T04:03:26.200Z,2.80
2018-05-08T04:06:03.941Z,3.00
2018-05-08T04:08:36.412Z,2.60
2018-05-08T04:11:08.249Z,2.97
2018-05-08T04:13:40.054Z,2.50
2018-05-08T04:18:12.939Z,3.00
2018-05-08T04:20:48.078Z,2.87
2018-05-08T04:23:19.624Z,2.90
2018-05-08T04:25:51.941Z,2.83
2018-05-08T04:28:24.423Z,2.70
2018-05-08T04:30:56.938Z,2.93
2018-05-08T04:33:29.494Z,2.90
2018-05-08T04:36:01.336Z,2.90
2018-05-08T04:38:38.521Z,2.90
2018-05-08T04:41:11.225Z,2.70
2018-05-08T04:43:44.331Z,2.80
2018-05-08T04:46:15.978Z,2.67
2018-05-08T04:48:48.544Z,2.80
2018-05-08T04:51:20.553Z,2.60
2018-05-08T04:53:51.999Z,2.60
2018-05-08T04:56:25.429Z,2.90
2018-05-08T04:58:57.980Z,2.90
2018-05-08T05:01:31.558Z,3.40
2018-05-08T05:04:07.012Z,3.00
2018-05-08T05:06:38.556Z,3.00
2018-05-08T05:09:10.021Z,2.70
2018-05-08T05:11:41.557Z,2.70
2018-05-08T05:14:14.387Z,2.75
2018-05-08T05:16:46.010Z,2.57
2018-05-08T05:19:18.419Z,2.70
2018-05-08T05:21:51.105Z,2.70
2018-05-08T05:24:23.173Z,2.80
2018-05-08T05:26:55.133Z,2.33
2018-05-08T05:32:14.437Z,2.60
2018-05-08T05:34:46.348Z,2.57
2018-05-08T05:37:18.965Z,2.20
2018-05-08T05:39:50.926Z,2.83
2018-05-08T05:42:22.675Z,3.00
2018-05-08T05:44:54.409Z,2.35
2018-05-08T05:47:26.566Z,2.40
2018-05-08T05:49:58.105Z,2.30
2018-05-08T05:52:30.015Z,2.70
2018-05-08T05:55:01.603Z,2.40
2018-05-08T05:57:35.467Z,2.40
2018-05-08T06:00:07.447Z,2.60
2018-05-08T06:02:39.142Z,2.60
2018-05-08T06:05:12.460Z,2.40
2018-05-08T06:07:44.357Z,2.40
2018-05-08T06:10:16.096Z,2.25
2018-05-08T06:12:47.876Z,2.67
2018-05-08T06:15:21.494Z,2.50
2018-05-08T06:17:53.291Z,2.35
2018-05-08T06:20:24.962Z,2.30
2018-05-08T06:22:58.109Z,2.50
2018-05-08T06:25:30.879Z,2.30
2018-05-08T06:28:03.488Z,2.33
2018-05-08T06:30:36.011Z,2.83
2018-05-08T06:33:09.160Z,2.17
2018-05-08T06:35:42.487Z,2.50
2018-05-08T06:38:15.491Z,2.33
2018-05-08T06:40:49.322Z,2.70
2018-05-08T06:43:22.713Z,2.37
2018-05-08T06:45:57.002Z,2.62
2018-05-08T06:48:30.503Z,2.37
2018-05-08T06:51:03.474Z,2.45
2018-05-08T06:53:37.489Z,2.97
2018-05-08T06:56:10.303Z,2.70
2018-05-08T06:58:44.103Z,2.40
2018-05-08T07:01:17.373Z,2.33
2018-05-08T07:03:50.625Z,2.40
2018-05-08T07:06:24.468Z,2.75
2018-05-08T07:08:57.678Z,2.40
2018-05-08T07:11:30.485Z,2.72
2018-05-08T07:14:05.457Z,2.47
2018-05-08T07:16:38.426Z,2.50
2018-05-08T07:19:11.757Z,2.53
2018-05-08T07:21:48.708Z,2.80
2018-05-08T07:24:21.866Z,2.50
2018-05-08T07:26:55.018Z,3.07
2018-05-08T07:29:27.496Z,2.83
2018-05-08T07:32:00.835Z,2.67
2018-05-08T07:34:33.481Z,2.80
2018-05-08T07:37:07.039Z,2.77
2018-05-08T07:39:40.856Z,2.50
2018-05-08T07:42:14.112Z,2.87
2018-05-08T07:44:47.459Z,2.63
2018-05-08T07:47:22.343Z,2.47
2018-05-08T07:49:55.642Z,2.53
2018-05-08T07:52:29.454Z,2.30
2018-05-08T07:55:02.345Z,2.30
2018-05-08T07:57:35.657Z,2.00
2018-05-08T08:00:08.526Z,2.30
2018-05-08T08:02:42.514Z,2.33
2018-05-08T08:05:16.057Z,2.35
2018-05-08T08:07:48.577Z,2.30
2018-05-08T08:10:22.830Z,2.65
2018-05-08T08:12:55.548Z,2.45
2018-05-08T08:15:29.476Z,2.20
2018-05-08T08:18:03.469Z,2.45
2018-05-08T08:20:36.431Z,2.67
2018-05-08T08:23:09.434Z,2.97
2018-05-08T08:25:43.287Z,2.50
2018-05-08T08:28:16.315Z,2.27
2018-05-08T08:30:49.596Z,2.50
2018-05-08T08:35:54.417Z,2.60
2018-05-08T08:38:27.594Z,2.50
2018-05-08T08:41:00.504Z,2.25
2018-05-08T08:43:33.158Z,2.87
2018-05-08T08:46:06.959Z,2.63
2018-05-08T08:48:40.535Z,2.30
2018-05-08T08:51:16.040Z,2.90
2018-05-08T08:53:49.412Z,2.80
2018-05-08T08:56:23.607Z,2.87
2018-05-08T08:58:56.561Z,2.62
2018-05-08T09:01:29.516Z,2.53
2018-05-08T09:04:02.594Z,2.40
2018-05-08T09:06:35.730Z,2.33
2018-05-08T09:09:09.482Z,2.67
2018-05-08T09:11:42.675Z,2.63
2018-05-08T09:14:15.910Z,2.50
2018-05-08T09:16:48.970Z,2.63
2018-05-08T09:19:23.337Z,2.73
2018-05-08T09:21:56.141Z,2.70
2018-05-08T09:24:29.711Z,2.75
2018-05-08T09:27:03.727Z,2.43
2018-05-08T09:29:36.782Z,2.20
2018-05-08T09:32:10.334Z,2.28
2018-05-08T09:34:43.729Z,2.85
2018-05-08T09:37:16.303Z,2.67
2018-05-08T09:39:49.445Z,2.70
2018-05-08T09:42:22.676Z,2.47
2018-05-08T09:44:55.505Z,2.40
2018-05-08T09:47:28.566Z,2.60
2018-05-08T09:50:01.656Z,2.50
2018-05-08T09:52:35.475Z,2.75
2018-05-08T09:55:09.107Z,2.60
2018-05-08T09:57:41.830Z,2.40
2018-05-08T10:00:14.562Z,2.65
2018-05-08T10:02:47.245Z,2.60
2018-05-08T10:05:20.651Z,2.73
2018-05-08T10:07:53.579Z,2.53
2018-05-08T10:10:26.443Z,2.63
2018-05-08T10:12:59.771Z,2.60
2018-05-08T10:15:33.456Z,2.70
2018-05-08T10:18:06.259Z,2.67
2018-05-08T10:20:39.759Z,3.10
2018-05-08T10:23:13.234Z,2.83
2018-05-08T10:25:46.688Z,2.50
2018-05-08T10:28:19.446Z,2.60
2018-05-08T10:30:52.347Z,2.80
2018-05-08T10:33:24.981Z,2.70
2018-05-08T10:35:57.487Z,2.90
2018-05-08T10:38:30.930Z,2.93
2018-05-08T10:41:04.025Z,2.42
2018-05-08T10:43:37.449Z,2.67
2018-05-08T10:46:10.350Z,2.80
2018-05-08T10:48:42.619Z,2.83
2018-05-08T10:51:15.457Z,2.60
2018-05-08T10:53:48.568Z,2.93
2018-05-08T10:56:21.897Z,2.92
2018-05-08T10:58:55.254Z,2.83
2018-05-08T11:01:28.111Z,2.80
2018-05-08T11:04:00.964Z,2.97
2018-05-08T11:06:33.984Z,2.90
2018-05-08T11:09:07.437Z,3.00
2018-05-08T11:13:58.000Z,3.10
2018-05-08T11:16:30.704Z,2.93
2018-05-08T11:19:03.165Z,2.70
2018-05-08T11:21:35.987Z,2.80
2018-05-08T11:24:09.070Z,2.80
2018-05-08T11:26:42.595Z,3.03
2018-05-08T11:29:15.501Z,2.70
2018-05-08T11:31:49.071Z,3.20
2018-05-08T11:34:21.849Z,3.10
2018-05-08T11:36:55.338Z,2.80
2018-05-08T11:39:27.727Z,2.40
2018-05-08T11:42:00.413Z,2.75
2018-05-08T11:44:33.729Z,3.20
2018-05-08T11:47:07.588Z,2.63
2018-05-08T11:52:12.443Z,2.90
2018-05-08T11:54:44.973Z,3.10
2018-05-08T11:57:18.599Z,2.43
2018-05-08T11:59:51.204Z,2.80
2018-05-08T12:02:24.428Z,2.30
2018-05-08T12:04:57.715Z,2.60
2018-05-08T12:07:31.108Z,2.78
2018-05-08T12:10:04.632Z,2.70
2018-05-08T12:12:37.688Z,3.00
2018-05-08T12:17:42.420Z,2.93
2018-05-08T12:20:15.488Z,3.27
2018-05-08T12:22:48.548Z,2.90
2018-05-08T12:25:21.778Z,2.72
2018-05-08T12:27:55.469Z,2.87
2018-05-08T12:30:27.996Z,2.67
2018-05-08T12:34:05.540Z,2.83
2018-05-08T12:36:38.967Z,2.62
2018-05-08T12:39:12.002Z,2.83
2018-05-08T12:41:45.062Z,2.40
2018-05-08T12:44:18.414Z,2.80
2018-05-08T12:46:51.949Z,2.75
2018-05-08T12:49:24.955Z,2.58
2018-05-08T12:51:57.451Z,2.40
2018-05-08T12:54:31.490Z,2.90
2018-05-08T12:57:05.228Z,2.45
2018-05-08T12:59:37.969Z,2.50
2018-05-08T13:02:11.605Z,2.80
2018-05-08T13:04:45.011Z,2.90
2018-05-08T13:07:17.782Z,2.45
2018-05-08T13:09:51.043Z,2.80
2018-05-08T13:12:23.718Z,3.00
2018-05-08T13:14:56.417Z,2.30
2018-05-08T13:17:29.328Z,2.70
2018-05-08T13:20:02.551Z,2.78
2018-05-08T13:22:36.236Z,3.30
2018-05-08T13:25:09.457Z,3.40
2018-05-08T13:27:42.854Z,3.30
2018-05-08T13:30:15.585Z,2.50
2018-05-08T13:32:48.699Z,2.97
2018-05-08T13:35:21.965Z,3.00
2018-05-08T13:37:55.317Z,2.83
2018-05-08T13:40:28.328Z,2.72
2018-05-08T13:43:00.963Z,2.55
2018-05-08T13:45:34.335Z,3.03
2018-05-08T13:48:07.200Z,3.17
2018-05-08T13:50:40.698Z,2.93
2018-05-08T13:53:14.511Z,2.90
2018-05-08T13:55:47.231Z,2.80
2018-05-08T13:58:19.577Z,3.07
2018-05-08T14:00:52.552Z,3.20
2018-05-08T14:03:25.443Z,3.20
2018-05-08T14:05:58.201Z,2.80
2018-05-08T14:08:30.966Z,3.57
2018-05-08T14:11:03.967Z,3.22
2018-05-08T14:13:37.229Z,4.00
2018-05-08T14:16:10.347Z,3.50
2018-05-08T14:18:43.429Z,3.80
2018-05-08T14:21:16.402Z,3.10
2018-05-08T14:23:49.542Z,3.50
2018-05-08T14:26:22.620Z,3.87
2018-05-08T14:28:55.597Z,4.10
2018-05-08T14:34:00.459Z,3.60
2018-05-08T14:36:33.031Z,3.93
2018-05-08T14:39:06.083Z,3.60
2018-05-08T14:41:38.969Z,4.25
2018-05-08T14:44:12.570Z,5.03
2018-05-08T14:46:46.107Z,3.87
2018-05-08T14:49:19.435Z,4.07
2018-05-08T14:51:52.958Z,3.87
2018-05-08T14:54:25.736Z,4.50
2018-05-08T14:56:58.662Z,3.87
2018-05-08T14:59:31.428Z,3.73
2018-05-08T15:02:05.567Z,4.20
2018-05-08T15:04:39.058Z,3.53
2018-05-08T15:07:12.425Z,4.30
2018-05-08T15:09:46.559Z,4.00
2018-05-08T15:12:19.916Z,3.97
2018-05-08T15:14:53.349Z,4.13
2018-05-08T15:17:26.424Z,4.10
2018-05-08T15:19:59.089Z,4.07
2018-05-08T15:22:32.135Z,4.40
2018-05-08T15:25:05.091Z,4.40
2018-05-08T15:27:38.138Z,3.50
2018-05-08T15:30:11.268Z,4.60
2018-05-08T15:32:44.496Z,3.93
2018-05-08T15:35:18.346Z,4.07
2018-05-08T15:37:51.516Z,3.80
2018-05-08T15:40:24.673Z,3.80
2018-05-08T15:42:58.300Z,3.60
2018-05-08T15:45:30.819Z,3.60
2018-05-08T15:48:04.353Z,5.13
2018-05-08T15:50:37.072Z,6.55
2018-05-08T15:53:09.930Z,5.80
2018-05-08T15:55:43.321Z,6.00
2018-05-08T15:58:16.644Z,5.18
2018-05-08T16:00:49.434Z,4.28
2018-05-08T16:03:22.331Z,4.75
2018-05-08T16:05:54.973Z,3.67
2018-05-08T16:08:27.132Z,3.90
2018-05-08T16:10:59.868Z,4.60
2018-05-08T16:13:33.510Z,4.30
2018-05-08T16:16:07.537Z,4.65
2018-05-08T16:18:41.101Z,3.85
2018-05-08T16:21:14.459Z,3.67
2018-05-08T16:23:47.442Z,3.77
2018-05-08T16:26:20.455Z,4.00
2018-05-08T16:28:53.119Z,4.10
2018-05-08T16:31:26.641Z,3.93
2018-05-08T16:33:59.591Z,4.13
2018-05-08T16:36:32.603Z,4.70
2018-05-08T16:39:05.951Z,4.32
2018-05-08T16:41:39.461Z,3.90
2018-05-08T16:44:13.283Z,4.20
2018-05-08T16:46:45.996Z,3.93
2018-05-08T16:49:18.753Z,4.17
2018-05-08T16:51:51.611Z,4.30
2018-05-08T16:54:25.425Z,4.20
2018-05-08T16:59:31.255Z,3.60
2018-05-08T17:02:03.959Z,4.00
2018-05-08T17:04:36.403Z,3.43
2018-05-08T17:07:08.774Z,3.80
2018-05-08T17:09:42.530Z,3.50
2018-05-08T17:12:15.748Z,3.60
2018-05-08T17:17:25.425Z,3.30
2018-05-08T17:19:58.691Z,4.03
2018-05-08T17:22:31.504Z,3.20
2018-05-08T17:25:04.552Z,3.33
2018-05-08T17:27:36.941Z,3.53
2018-05-08T17:30:09.824Z,4.10
2018-05-08T17:32:43.406Z,3.75
2018-05-08T17:35:16.049Z,3.93
2018-05-08T17:37:49.100Z,4.00
2018-05-08T17:40:22.326Z,4.30
2018-05-08T17:42:55.614Z,3.90
2018-05-08T17:45:28.569Z,4.53
2018-05-08T17:48:01.420Z,4.30
2018-05-08T17:50:34.534Z,3.57
2018-05-08T17:53:07.553Z,3.63
2018-05-08T17:55:40.553Z,3.83
2018-05-08T17:58:13.405Z,4.30
2018-05-08T18:02:34.655Z,3.70
2018-05-08T18:05:08.428Z,4.78
2018-05-08T18:07:41.512Z,4.10
2018-05-08T18:10:14.060Z,4.00
2018-05-08T18:12:47.050Z,4.80
2018-05-08T18:15:19.803Z,4.65
2018-05-08T18:17:53.249Z,4.60
2018-05-08T18:20:25.776Z,4.10
2018-05-08T18:22:58.772Z,4.05
2018-05-08T18:25:31.546Z,4.15
2018-05-08T18:28:05.402Z,4.10
2018-05-08T18:30:38.413Z,3.75
2018-05-08T18:33:11.419Z,3.60
2018-05-08T18:35:44.215Z,4.60
2018-05-08T18:38:17.829Z,4.20
2018-05-08T18:40:50.962Z,4.57
2018-05-08T18:43:24.403Z,3.47
2018-05-08T18:45:56.875Z,3.50
2018-05-08T18:48:29.810Z,3.70
2018-05-08T18:51:03.054Z,4.67
2018-05-08T18:53:35.450Z,4.13
2018-05-08T18:56:08.039Z,3.60
2018-05-08T18:58:41.610Z,4.20
2018-05-08T19:01:14.563Z,4.80
2018-05-08T19:03:48.613Z,4.20
2018-05-08T19:09:17.469Z,4.30
2018-05-08T19:11:51.417Z,3.87
2018-05-08T19:14:24.900Z,3.67
2018-05-08T19:16:57.964Z,3.78
2018-05-08T19:19:35.537Z,3.83
2018-05-08T19:22:09.107Z,3.95
2018-05-08T19:24:42.324Z,4.20
2018-05-08T19:27:15.185Z,3.97
2018-05-08T19:29:52.678Z,4.10
2018-05-08T19:32:26.329Z,3.47
2018-05-08T19:35:03.972Z,3.70
2018-05-08T19:40:56.503Z,3.70
2018-05-08T19:43:29.659Z,3.50
2018-05-08T19:46:02.442Z,3.15
2018-05-08T19:48:35.446Z,3.00
2018-05-08T19:51:08.441Z,2.87
2018-05-08T19:53:41.421Z,2.83
2018-05-08T19:56:14.720Z,2.45
2018-05-08T19:58:47.539Z,2.87
2018-05-08T20:01:20.431Z,2.90
2018-05-08T20:03:53.295Z,3.03
2018-05-08T20:06:26.404Z,3.10
2018-05-08T20:08:59.542Z,3.17
2018-05-08T20:11:32.640Z,2.80
2018-05-08T20:16:37.104Z,3.10
2018-05-08T20:19:10.480Z,3.43
2018-05-08T20:21:43.636Z,2.80
2018-05-08T20:24:16.619Z,2.90
2018-05-08T20:26:49.073Z,3.23
2018-05-08T20:29:22.445Z,3.00
2018-05-08T20:31:55.426Z,2.90
2018-05-08T20:34:28.145Z,2.80
2018-05-08T20:37:01.417Z,2.97
2018-05-08T20:39:34.186Z,2.75
2018-05-08T20:42:07.032Z,2.73
2018-05-08T20:44:40.583Z,2.60
2018-05-08T20:47:13.112Z,2.37
2018-05-08T20:49:46.163Z,2.25
2018-05-08T20:52:19.543Z,2.60
2018-05-08T20:54:52.942Z,2.10
2018-05-08T20:59:57.415Z,1.60
2018-05-08T21:02:30.622Z,1.90
2018-05-08T21:05:03.488Z,2.30
2018-05-08T21:07:36.241Z,2.00
2018-05-08T21:10:08.762Z,1.90
2018-05-08T21:15:14.342Z,1.85
2018-05-08T21:17:48.279Z,1.80
2018-05-08T21:20:21.718Z,2.00
2018-05-08T21:22:54.729Z,1.87
2018-05-08T21:25:27.927Z,2.33
2018-05-08T21:28:05.573Z,2.10
2018-05-08T21:30:43.991Z,1.87
2018-05-08T21:33:17.709Z,1.83
2018-05-08T21:35:50.705Z,1.90
2018-05-08T21:38:24.121Z,1.80
2018-05-08T21:40:57.544Z,1.80
2018-05-08T21:43:30.547Z,1.90
2018-05-08T21:46:03.432Z,1.70
2018-05-08T21:48:36.089Z,1.80
2018-05-08T21:51:08.503Z,2.00
2018-05-08T21:53:42.507Z,1.80
2018-05-08T21:56:15.502Z,2.10
2018-05-08T21:58:48.273Z,1.90
2018-05-08T22:01:20.908Z,1.70
2018-05-08T22:06:26.292Z,1.60
2018-05-08T22:08:58.911Z,1.60
2018-05-08T22:11:31.583Z,1.60
2018-05-08T22:14:05.366Z,1.40
2018-05-08T22:16:37.968Z,1.50
2018-05-08T22:19:10.654Z,1.50
2018-05-08T22:21:42.450Z,1.43
2018-05-08T22:26:28.480Z,1.40
2018-05-08T22:29:00.309Z,1.40
2018-05-08T22:31:31.906Z,1.50
2018-05-08T22:34:04.500Z,1.35
2018-05-08T22:36:37.603Z,1.35
2018-05-08T22:39:09.369Z,1.40
2018-05-08T22:41:41.014Z,1.50
2018-05-08T22:44:13.083Z,1.40
2018-05-08T22:46:45.096Z,1.60
2018-05-08T22:49:46.155Z,1.70
2018-05-08T22:52:18.708Z,1.30
2018-05-08T22:54:50.462Z,1.40
2018-05-08T22:57:21.980Z,1.40
2018-05-08T22:59:53.588Z,1.50
2018-05-08T23:05:01.594Z,1.30
2018-05-08T23:07:33.012Z,1.40
2018-05-08T23:10:05.003Z,1.35
2018-05-08T23:12:36.604Z,1.40
2018-05-08T23:15:08.343Z,1.20
2018-05-08T23:17:40.140Z,1.30
2018-05-08T23:20:13.475Z,1.05
2018-05-08T23:22:45.219Z,1.40
2018-05-08T23:26:09.995Z,1.20
2018-05-08T23:28:42.068Z,1.20
2018-05-08T23:31:15.519Z,1.20
2018-05-08T23:33:48.668Z,1.20
2018-05-08T23:36:20.299Z,1.20
2018-05-08T23:38:52.009Z,1.30
2018-05-08T23:41:23.607Z,1.10
2018-05-08T23:43:55.403Z,1.15
2018-05-08T23:46:27.150Z,1.30
2018-05-08T23:51:14.627Z,1.25
2018-05-08T23:53:46.173Z,1.10
2018-05-08T23:56:18.141Z,1.20
2018-05-08T23:59:24.891Z,1.20
